Time,TemperatureF,DewpointF,PressureIn,WindDirection,WindDirectionDegrees,WindSpeedMPH,WindSpeedGustMPH,Humidity,HourlyPrecipIn,Conditions,Clouds,dailyrainin,SoftwareType,DateUTC
2014-09-20 00:12:00,49.0,48.0,29.49,East,93,0.0,0.0,95,0.02,,,0.43,,2014-09-20 08:12:00,
2014-09-20 00:22:00,49.0,48.0,29.50,NW,311,3.0,6.0,95,0.02,,,0.43,,2014-09-20 08:22:00,
2014-09-20 00:52:00,49.0,48.0,29.50,ENE,63,2.0,6.0,95,0.00,,,0.43,,2014-09-20 08:52:00,
2014-09-20 01:22:00,49.0,48.0,29.50,NE,54,0.0,7.0,95,0.00,,,0.43,,2014-09-20 09:22:00,
2014-09-20 01:54:00,48.0,47.0,29.51,North,353,1.0,5.0,95,0.00,,,0.42,,2014-09-20 09:54:00,
2014-09-20 02:13:00,48.0,47.0,29.51,SE,140,2.0,9.0,95,0.00,,,0.41,,2014-09-20 10:13:00,
2014-09-20 02:23:00,48.0,47.0,29.51,NE,49,3.0,9.0,95,0.00,,,0.40,,2014-09-20 10:23:00,
2014-09-20 02:54:00,48.0,47.0,29.52,West,280,0.0,3.0,95,0.00,,,0.38,,2014-09-20 10:54:00,
2014-09-20 03:23:00,48.0,47.0,29.52,South,186,0.0,3.0,95,0.00,,,0.36,,2014-09-20 11:23:00,
2014-09-20 03:52:00,47.0,46.0,29.53,South,186,0.0,0.0,95,0.00,,,0.35,,2014-09-20 11:52:00,
2014-09-20 04:22:00,47.0,46.0,29.53,South,186,0.0,0.0,96,0.00,,,0.34,,2014-09-20 12:22:00,
2014-09-20 04:52:00,47.0,46.0,29.53,South,186,0.0,0.0,96,0.00,,,0.34,,2014-09-20 12:52:00,
2014-09-20 05:22:00,46.0,45.0,29.53,South,186,0.0,0.0,96,0.00,,,0.33,,2014-09-20 13:22:00,
2014-09-20 05:52:00,46.0,45.0,29.54,South,186,0.0,0.0,96,0.00,,,0.32,,2014-09-20 13:52:00,
2014-09-20 06:22:00,46.0,45.0,29.54,South,186,0.0,0.0,96,0.00,,,0.31,,2014-09-20 14:22:00,
2014-09-20 06:42:00,45.0,44.0,29.54,South,186,0.0,0.0,96,0.00,,,0.31,,2014-09-20 14:42:00,
2014-09-20 06:52:00,45.0,44.0,29.54,NE,38,0.0,2.0,96,0.00,,,0.30,,2014-09-20 14:52:00,
2014-09-20 07:12:00,45.0,44.0,29.54,NE,38,0.0,0.0,96,0.00,,,0.30,,2014-09-20 15:12:00,
2014-09-20 07:22:00,44.0,43.0,29.54,NE,38,0.0,0.0,96,0.00,,,0.29,,2014-09-20 15:22:00,
2014-09-20 07:54:00,44.0,43.0,29.54,NE,38,0.0,0.0,96,0.00,,,0.27,,2014-09-20 15:54:00,
2014-09-20 08:23:00,43.0,42.0,29.55,NE,38,0.0,0.0,96,0.00,,,0.26,,2014-09-20 16:23:00,
2014-09-20 08:44:00,42.0,41.0,29.55,NE,38,0.0,0.0,96,0.00,,,0.26,,2014-09-20 16:44:00,
2014-09-20 08:54:00,42.0,41.0,29.55,NE,38,0.0,0.0,96,0.00,,,0.26,,2014-09-20 16:54:00,
2014-09-20 09:23:00,43.0,42.0,29.56,North,0,0.0,2.0,96,0.00,,,0.25,,2014-09-20 17:23:00,
2014-09-20 09:53:00,44.0,43.0,29.56,North,0,0.0,0.0,96,0.00,,,0.24,,2014-09-20 17:53:00,
2014-09-20 10:22:00,46.0,45.0,29.57,North,0,0.0,0.0,96,0.00,,,0.24,,2014-09-20 18:22:00,
2014-09-20 10:52:00,49.0,48.0,29.57,North,0,0.0,0.0,96,0.00,,,0.24,,2014-09-20 18:52:00,
2014-09-20 11:12:00,50.0,49.0,29.57,North,0,0.0,0.0,96,0.00,,,0.24,,2014-09-20 19:12:00,
2014-09-20 11:22:00,51.0,50.0,29.57,North,0,0.0,0.0,95,0.00,,,0.24,,2014-09-20 19:22:00,
2014-09-20 11:42:00,51.0,49.0,29.57,NNE,17,0.0,2.0,94,0.00,,,0.23,,2014-09-20 19:42:00,
2014-09-20 11:52:00,52.0,50.0,29.58,SW,221,1.0,5.0,92,0.00,,,0.23,,2014-09-20 19:52:00,
2014-09-20 12:22:00,54.0,51.0,29.58,SW,226,1.0,3.0,88,0.00,,,0.23,,2014-09-20 20:22:00,
2014-09-20 12:52:00,55.0,51.0,29.59,NW,316,0.0,3.0,85,0.00,,,0.23,,2014-09-20 20:52:00,
2014-09-20 13:22:00,55.0,49.0,29.59,North,9,4.0,7.0,80,0.00,,,0.23,,2014-09-20 21:22:00,
2014-09-20 13:54:00,56.0,49.0,29.59,WNW,295,2.0,5.0,76,0.00,,,0.23,,2014-09-20 21:54:00,
2014-09-20 14:23:00,57.0,49.0,29.60,NW,316,1.0,3.0,75,0.00,,,0.23,,2014-09-20 22:23:00,
2014-09-20 14:53:00,57.0,49.0,29.60,NNE,26,2.0,7.0,74,0.00,,,0.23,,2014-09-20 22:53:00,
2014-09-20 15:23:00,56.0,48.0,29.60,ENE,73,1.0,5.0,75,0.00,,,0.23,,2014-09-20 23:23:00,
2014-09-20 15:53:00,58.0,49.0,29.59,ENE,58,2.0,6.0,72,0.00,,,0.23,,2014-09-20 23:53:00,